createdAt,value
2019-03-21T00:01:06.019Z,22.57
2019-03-21T00:03:35.357Z,21.03
2019-03-21T00:06:06.007Z,21.53
2019-03-21T00:08:35.227Z,21.60
2019-03-21T00:11:39.602Z,31.23
2019-03-21T00:14:18.558Z,24.32
2019-03-21T00:16:47.852Z,26.97
2019-03-21T00:19:17.339Z,20.17
2019-03-21T00:21:47.321Z,27.20
2019-03-21T00:24:16.738Z,21.73
2019-03-21T00:26:46.266Z,24.67
2019-03-21T00:29:15.718Z,22.25
2019-03-21T00:31:45.562Z,31.73
2019-03-21T00:34:14.782Z,22.32
2019-03-21T00:36:44.295Z,24.12
2019-03-21T00:39:13.874Z,24.98
2019-03-21T00:41:43.582Z,26.67
2019-03-21T00:44:18.085Z,24.47
2019-03-21T00:46:44.649Z,22.15
2019-03-21T00:49:13.909Z,22.10
2019-03-21T00:51:43.362Z,27.37
2019-03-21T00:54:12.842Z,20.57
2019-03-21T00:56:42.108Z,22.67
2019-03-21T00:59:11.326Z,22.90
2019-03-21T01:01:40.727Z,20.77
2019-03-21T01:04:10.047Z,30.60
2019-03-21T01:06:39.310Z,21.97
2019-03-21T01:09:10.516Z,22.62
2019-03-21T01:11:39.746Z,24.43
2019-03-21T01:14:09.300Z,29.57
2019-03-21T01:16:39.350Z,27.65
2019-03-21T01:19:08.679Z,22.00
2019-03-21T01:21:38.148Z,29.53
2019-03-21T01:24:07.606Z,24.20
2019-03-21T01:26:37.308Z,21.83
2019-03-21T01:29:06.507Z,33.10
2019-03-21T01:31:35.810Z,28.90
2019-03-21T01:34:05.311Z,27.57
2019-03-21T01:36:34.735Z,22.50
2019-03-21T01:39:05.714Z,29.48
2019-03-21T01:41:35.194Z,38.20
2019-03-21T01:44:04.559Z,27.40
2019-03-21T01:46:33.783Z,32.20
2019-03-21T01:49:03.318Z,30.80
2019-03-21T01:51:32.619Z,28.97
2019-03-21T01:54:01.901Z,31.33
2019-03-21T01:56:31.751Z,26.00
2019-03-21T01:59:01.019Z,31.83
2019-03-21T02:01:31.036Z,30.87
2019-03-21T02:04:00.314Z,33.65
2019-03-21T02:06:29.545Z,33.40
2019-03-21T02:08:59.137Z,29.20
2019-03-21T02:11:28.340Z,35.43
2019-03-21T02:13:57.573Z,29.20
2019-03-21T02:16:26.914Z,29.47
2019-03-21T02:18:56.466Z,40.87
2019-03-21T02:21:25.926Z,36.23
2019-03-21T02:23:55.187Z,33.25
2019-03-21T02:26:24.445Z,38.37
2019-03-21T02:28:53.827Z,35.48
2019-03-21T02:31:23.131Z,28.80
2019-03-21T02:33:52.361Z,28.12
2019-03-21T02:36:21.903Z,38.87
2019-03-21T02:38:51.219Z,29.97
2019-03-21T02:41:20.433Z,33.53
2019-03-21T02:43:50.311Z,35.87
2019-03-21T02:46:19.689Z,35.53
2019-03-21T02:48:49.379Z,29.43
2019-03-21T02:51:18.608Z,34.33
2019-03-21T02:53:48.159Z,29.57
2019-03-21T02:56:18.128Z,33.30
2019-03-21T02:58:47.501Z,33.00
2019-03-21T03:01:16.881Z,30.12
2019-03-21T03:03:46.200Z,33.37
2019-03-21T03:06:15.455Z,34.27
2019-03-21T03:08:44.785Z,30.00
2019-03-21T03:11:14.553Z,32.40
2019-03-21T03:13:44.992Z,31.90
2019-03-21T03:16:14.578Z,31.77
2019-03-21T03:18:43.791Z,25.62
2019-03-21T03:21:13.004Z,31.10
2019-03-21T03:23:42.238Z,36.63
2019-03-21T03:26:11.518Z,32.60
2019-03-21T03:28:40.936Z,26.00
2019-03-21T03:31:10.586Z,29.10
2019-03-21T03:33:40.017Z,38.38
2019-03-21T03:36:09.491Z,28.52
2019-03-21T03:38:38.707Z,31.50
2019-03-21T03:41:08.870Z,31.17
2019-03-21T03:43:38.396Z,27.23
2019-03-21T03:46:08.325Z,32.85
2019-03-21T03:48:37.673Z,31.00
2019-03-21T03:51:06.950Z,30.88
2019-03-21T03:53:36.762Z,27.35
2019-03-21T03:56:06.156Z,31.68
2019-03-21T03:58:36.374Z,29.60
2019-03-21T04:01:05.845Z,28.57
2019-03-21T04:03:35.164Z,31.80
2019-03-21T04:06:04.661Z,29.27
2019-03-21T04:08:34.115Z,26.12
2019-03-21T04:11:03.545Z,23.40
2019-03-21T04:13:34.080Z,28.92
2019-03-21T04:16:03.431Z,27.57
2019-03-21T04:18:33.476Z,33.53
2019-03-21T04:21:03.016Z,30.13
2019-03-21T04:23:33.319Z,34.60
2019-03-21T04:26:06.290Z,29.50
2019-03-21T04:28:35.599Z,25.10
2019-03-21T04:31:05.078Z,29.63
2019-03-21T04:33:35.056Z,29.57
2019-03-21T04:36:04.292Z,30.63
2019-03-21T04:38:33.904Z,26.87
2019-03-21T04:41:03.451Z,34.37
2019-03-21T04:43:32.714Z,28.05
2019-03-21T04:46:07.673Z,28.83
2019-03-21T04:48:33.649Z,22.85
2019-03-21T04:51:03.009Z,28.60
2019-03-21T04:53:32.612Z,32.93
2019-03-21T04:56:02.228Z,28.37
2019-03-21T04:58:31.433Z,28.77
2019-03-21T05:01:01.442Z,30.43
2019-03-21T05:03:30.766Z,29.47
2019-03-21T05:06:00.517Z,34.73
2019-03-21T05:08:29.767Z,32.87
2019-03-21T05:10:59.290Z,33.80
2019-03-21T05:13:28.602Z,35.58
2019-03-21T05:15:58.334Z,29.37
2019-03-21T05:18:31.040Z,27.87
2019-03-21T05:21:00.523Z,27.63
2019-03-21T05:23:29.853Z,33.38
2019-03-21T05:25:59.154Z,37.40
2019-03-21T05:28:28.365Z,27.83
2019-03-21T05:31:03.642Z,30.80
2019-03-21T05:33:35.599Z,31.12
2019-03-21T05:36:05.419Z,35.67
2019-03-21T05:38:34.991Z,30.53
2019-03-21T05:41:04.403Z,30.70
2019-03-21T05:43:37.479Z,33.58
2019-03-21T05:46:06.776Z,33.18
2019-03-21T05:48:36.582Z,27.37
2019-03-21T05:51:05.813Z,31.00
2019-03-21T05:53:35.369Z,48.13
2019-03-21T05:56:04.617Z,30.17
2019-03-21T05:58:33.858Z,33.48
2019-03-21T06:01:03.234Z,27.93
2019-03-21T06:03:35.234Z,27.33
2019-03-21T06:06:09.514Z,30.97
2019-03-21T06:08:39.460Z,29.47
2019-03-21T06:11:09.098Z,34.73
2019-03-21T06:13:38.630Z,30.75
2019-03-21T06:16:07.303Z,32.90
2019-03-21T06:19:12.658Z,31.82
2019-03-21T06:21:47.037Z,38.30
2019-03-21T06:24:40.201Z,43.93
2019-03-21T06:27:40.553Z,29.95
2019-03-21T06:30:11.219Z,28.67
2019-03-21T06:32:40.592Z,31.57
2019-03-21T06:35:20.848Z,36.15
2019-03-21T06:37:53.697Z,30.70
2019-03-21T06:40:22.994Z,32.33
2019-03-21T06:42:52.314Z,29.80
2019-03-21T06:45:21.785Z,31.17
2019-03-21T06:47:53.134Z,36.85
2019-03-21T06:50:22.660Z,30.57
2019-03-21T06:52:51.870Z,31.67
2019-03-21T06:55:21.119Z,35.37
2019-03-21T06:57:50.802Z,31.93
2019-03-21T07:00:20.066Z,23.92
2019-03-21T07:02:49.445Z,42.73
2019-03-21T07:05:21.671Z,30.70
2019-03-21T07:07:50.896Z,31.10
2019-03-21T07:10:20.328Z,31.93
2019-03-21T07:12:49.563Z,28.15
2019-03-21T07:15:18.830Z,27.20
2019-03-21T07:17:48.091Z,30.80
2019-03-21T07:20:17.743Z,31.40
2019-03-21T07:22:47.263Z,29.30
2019-03-21T07:25:17.472Z,34.83
2019-03-21T07:27:47.882Z,30.33
2019-03-21T07:30:17.211Z,34.70
2019-03-21T07:32:46.430Z,33.28
2019-03-21T07:35:16.027Z,31.77
2019-03-21T07:37:45.518Z,29.90
2019-03-21T07:40:14.926Z,30.05
2019-03-21T07:42:44.596Z,29.67
2019-03-21T07:45:14.353Z,31.47
2019-03-21T07:47:44.000Z,31.10
2019-03-21T07:50:13.794Z,30.10
2019-03-21T07:52:43.385Z,38.50
2019-03-21T07:55:12.826Z,36.03
2019-03-21T07:57:42.170Z,36.00
2019-03-21T08:00:13.346Z,39.15
2019-03-21T08:02:42.685Z,36.40
2019-03-21T08:05:12.745Z,40.45
2019-03-21T08:07:42.331Z,36.95
2019-03-21T08:10:12.211Z,35.60
2019-03-21T08:12:42.052Z,45.73
2019-03-21T08:15:11.479Z,41.45
2019-03-21T08:17:40.800Z,44.77
2019-03-21T08:20:11.254Z,39.95
2019-03-21T08:22:40.563Z,36.83
2019-03-21T08:25:10.472Z,32.80
2019-03-21T08:27:40.414Z,34.65
2019-03-21T08:30:15.727Z,34.78
2019-03-21T08:32:45.207Z,29.75
2019-03-21T08:35:14.866Z,32.85
2019-03-21T08:37:44.199Z,32.78
2019-03-21T08:40:14.360Z,33.38
2019-03-21T08:42:43.825Z,33.40
2019-03-21T08:45:13.121Z,30.97
2019-03-21T08:47:43.445Z,28.75
2019-03-21T08:50:12.962Z,31.70
2019-03-21T08:52:42.438Z,26.57
2019-03-21T08:55:12.616Z,37.13
2019-03-21T08:57:42.159Z,30.67
2019-03-21T09:00:12.052Z,34.80
2019-03-21T09:02:41.322Z,34.03
2019-03-21T09:05:10.801Z,31.48
2019-03-21T09:07:40.243Z,25.45
2019-03-21T09:10:09.682Z,30.00
2019-03-21T09:12:39.195Z,31.95
2019-03-21T09:15:08.706Z,27.40
2019-03-21T09:17:38.102Z,33.85
2019-03-21T09:20:08.426Z,26.50
2019-03-21T09:22:37.645Z,26.42
2019-03-21T09:25:07.081Z,27.17
2019-03-21T09:27:36.301Z,29.50
2019-03-21T09:30:06.800Z,20.90
2019-03-21T09:32:36.497Z,30.57
2019-03-21T09:35:06.630Z,28.02
2019-03-21T09:37:35.874Z,30.15
2019-03-21T09:40:06.590Z,25.62
2019-03-21T09:42:36.129Z,27.87
2019-03-21T09:45:07.799Z,23.35
2019-03-21T09:47:37.420Z,25.00
2019-03-21T09:50:08.142Z,23.77
2019-03-21T09:52:37.702Z,24.55
2019-03-21T09:55:07.353Z,24.45
2019-03-21T09:57:36.816Z,31.48
2019-03-21T10:00:06.694Z,26.37
2019-03-21T10:02:35.952Z,26.02
2019-03-21T10:05:05.978Z,27.45
2019-03-21T10:07:35.271Z,37.98
2019-03-21T10:10:05.179Z,27.03
2019-03-21T10:12:34.385Z,25.85
2019-03-21T10:15:04.333Z,22.73
2019-03-21T10:17:33.707Z,31.37
2019-03-21T10:20:02.978Z,26.93
2019-03-21T10:22:32.263Z,25.23
2019-03-21T10:25:01.939Z,27.35
2019-03-21T10:27:31.509Z,26.73
2019-03-21T10:30:01.027Z,20.90
2019-03-21T10:32:30.594Z,66.35
2019-03-21T10:35:00.328Z,25.55
2019-03-21T10:37:29.849Z,30.62
2019-03-21T10:39:59.458Z,25.57
2019-03-21T10:42:28.737Z,23.10
2019-03-21T10:44:57.995Z,23.35
2019-03-21T10:47:27.379Z,23.38
2019-03-21T10:49:56.712Z,19.60
2019-03-21T10:52:26.079Z,29.40
2019-03-21T10:54:56.381Z,20.95
2019-03-21T10:57:26.136Z,18.35
2019-03-21T10:59:55.939Z,18.75
2019-03-21T11:02:25.494Z,18.77
2019-03-21T11:04:54.887Z,28.30
2019-03-21T11:07:22.561Z,19.37
2019-03-21T11:09:51.845Z,20.50
2019-03-21T11:12:21.185Z,19.70
2019-03-21T11:14:50.451Z,20.17
2019-03-21T11:17:19.772Z,29.42
2019-03-21T11:19:49.534Z,21.35
2019-03-21T11:22:18.812Z,22.65
2019-03-21T11:24:48.561Z,29.47
2019-03-21T11:27:17.783Z,25.08
2019-03-21T11:29:47.011Z,19.27
2019-03-21T11:32:16.427Z,20.65
2019-03-21T11:34:45.890Z,18.75
2019-03-21T11:37:15.086Z,18.48
2019-03-21T11:39:44.373Z,23.12
2019-03-21T11:42:13.602Z,19.10
2019-03-21T11:44:42.815Z,22.73
2019-03-21T11:47:12.417Z,22.73
2019-03-21T11:49:41.850Z,20.90
2019-03-21T11:52:18.097Z,24.72
2019-03-21T11:54:42.815Z,19.48
2019-03-21T11:57:12.319Z,20.85
2019-03-21T11:59:51.072Z,17.67
2019-03-21T12:02:12.835Z,20.43
2019-03-21T12:04:42.358Z,21.77
2019-03-21T12:07:11.637Z,25.97
2019-03-21T12:09:40.890Z,20.75
2019-03-21T12:12:10.331Z,23.65
2019-03-21T12:14:40.071Z,21.37
2019-03-21T12:17:09.448Z,20.50
2019-03-21T12:19:38.795Z,22.57
2019-03-21T12:22:08.280Z,23.07
2019-03-21T12:24:39.958Z,25.30
2019-03-21T12:27:09.489Z,23.18
2019-03-21T12:29:38.930Z,24.90
2019-03-21T12:32:08.731Z,25.08
2019-03-21T12:34:37.937Z,23.15
2019-03-21T12:37:07.150Z,27.77
2019-03-21T12:39:36.883Z,29.27
2019-03-21T12:42:06.166Z,29.90
2019-03-21T12:44:35.410Z,39.45
2019-03-21T12:47:04.969Z,25.10
2019-03-21T12:49:34.191Z,26.48
2019-03-21T12:52:03.631Z,27.30
2019-03-21T12:54:36.025Z,27.85
2019-03-21T12:57:05.281Z,28.00
2019-03-21T12:59:34.816Z,28.32
2019-03-21T13:02:04.054Z,30.30
2019-03-21T13:04:34.604Z,36.13
2019-03-21T13:07:03.854Z,29.80
2019-03-21T13:09:33.194Z,30.30
2019-03-21T13:12:02.487Z,30.60
2019-03-21T13:14:31.739Z,29.97
2019-03-21T13:17:01.005Z,32.08
2019-03-21T13:19:30.724Z,35.58
2019-03-21T13:21:59.923Z,29.40
2019-03-21T13:24:29.450Z,33.00
2019-03-21T13:27:00.242Z,33.60
2019-03-21T13:29:30.101Z,35.55
2019-03-21T13:31:59.516Z,29.23
2019-03-21T13:34:29.023Z,32.88
2019-03-21T13:36:58.367Z,35.33
2019-03-21T13:39:28.023Z,28.00
2019-03-21T13:41:57.254Z,38.15
2019-03-21T13:44:26.474Z,34.95
2019-03-21T13:46:55.710Z,34.85
2019-03-21T13:49:25.184Z,33.63
2019-03-21T13:51:54.415Z,30.15
2019-03-21T13:54:23.942Z,34.75
2019-03-21T13:56:53.303Z,31.15
2019-03-21T13:59:22.878Z,38.65
2019-03-21T14:01:52.183Z,36.28
2019-03-21T14:04:21.443Z,31.48
2019-03-21T14:06:51.175Z,30.35
2019-03-21T14:09:20.506Z,33.10
2019-03-21T14:11:49.823Z,31.60
2019-03-21T14:14:19.287Z,33.65
2019-03-21T14:16:50.971Z,37.28
2019-03-21T14:19:20.245Z,30.85
2019-03-21T14:21:49.541Z,34.03
2019-03-21T14:24:19.468Z,32.05
2019-03-21T14:26:49.409Z,32.32
2019-03-21T14:29:18.915Z,36.30
2019-03-21T14:31:48.451Z,37.78
2019-03-21T14:34:17.695Z,34.20
2019-03-21T14:36:46.928Z,34.55
2019-03-21T14:39:16.201Z,35.73
2019-03-21T14:41:45.478Z,36.03
2019-03-21T14:44:14.762Z,33.78
2019-03-21T14:46:44.191Z,33.70
2019-03-21T14:49:13.678Z,31.42
2019-03-21T14:51:42.946Z,37.73
2019-03-21T14:54:12.261Z,38.95
2019-03-21T14:56:43.095Z,32.23
2019-03-21T14:59:12.906Z,35.35
2019-03-21T15:01:42.534Z,31.37
2019-03-21T15:04:12.074Z,31.07
2019-03-21T15:06:41.282Z,38.05
2019-03-21T15:09:10.651Z,33.78
2019-03-21T15:11:40.200Z,37.83
2019-03-21T15:14:10.172Z,33.05
2019-03-21T15:16:39.643Z,32.83
2019-03-21T15:19:09.118Z,35.08
2019-03-21T15:21:38.544Z,30.35
2019-03-21T15:24:07.923Z,35.38
2019-03-21T15:26:37.122Z,26.73
2019-03-21T15:29:06.326Z,38.02
2019-03-21T15:31:36.233Z,31.85
2019-03-21T15:34:05.723Z,40.38
2019-03-21T15:36:37.594Z,28.10
2019-03-21T15:39:08.762Z,28.12
2019-03-21T15:41:38.674Z,33.50
2019-03-21T15:44:08.246Z,36.55
2019-03-21T15:46:37.531Z,33.08
2019-03-21T15:49:06.763Z,27.65
2019-03-21T15:51:35.990Z,29.27
2019-03-21T15:54:05.339Z,28.42
2019-03-21T15:56:34.565Z,29.05
2019-03-21T15:59:04.291Z,28.55
2019-03-21T16:01:34.031Z,29.75
2019-03-21T16:04:03.396Z,27.80
2019-03-21T16:06:32.737Z,36.38
2019-03-21T16:09:02.362Z,26.65
2019-03-21T16:11:31.621Z,31.93
2019-03-21T16:14:00.910Z,30.57
2019-03-21T16:16:30.449Z,29.32
2019-03-21T16:18:59.658Z,34.17
2019-03-21T16:21:29.115Z,28.38
2019-03-21T16:24:05.099Z,26.57
2019-03-21T16:26:29.429Z,37.40
2019-03-21T16:28:58.632Z,28.50
2019-03-21T16:31:27.938Z,30.50
2019-03-21T16:33:57.170Z,28.77
2019-03-21T16:36:26.733Z,31.27
2019-03-21T16:38:56.005Z,30.48
2019-03-21T16:41:25.236Z,32.60
2019-03-21T16:43:54.461Z,39.90
2019-03-21T16:46:23.706Z,32.17
2019-03-21T16:48:52.977Z,36.25
2019-03-21T16:51:22.391Z,33.02
2019-03-21T16:53:52.581Z,33.18
2019-03-21T16:56:26.391Z,35.57
2019-03-21T16:58:55.774Z,36.55
2019-03-21T17:01:26.302Z,37.63
2019-03-21T17:03:55.552Z,36.33
2019-03-21T17:06:25.068Z,35.70
2019-03-21T17:08:54.995Z,31.85
2019-03-21T17:11:24.385Z,35.68
2019-03-21T17:13:53.632Z,35.15
2019-03-21T17:16:23.322Z,33.00
2019-03-21T17:18:52.532Z,37.42
2019-03-21T17:21:21.819Z,28.50
2019-03-21T17:23:51.366Z,32.53
2019-03-21T17:26:20.623Z,35.25
2019-03-21T17:28:49.868Z,35.77
2019-03-21T17:31:19.311Z,29.90
2019-03-21T17:33:48.506Z,37.40
2019-03-21T17:36:20.576Z,36.88
2019-03-21T17:38:48.981Z,36.10
2019-03-21T17:41:18.430Z,36.77
2019-03-21T17:43:47.733Z,39.10
2019-03-21T17:46:17.366Z,37.17
2019-03-21T17:48:47.062Z,35.48
2019-03-21T17:51:16.295Z,36.67
2019-03-21T17:53:45.846Z,32.05
2019-03-21T17:56:15.118Z,37.33
2019-03-21T17:58:44.591Z,40.43
2019-03-21T18:01:14.402Z,35.67
2019-03-21T18:03:43.795Z,43.85
2019-03-21T18:06:13.028Z,33.20
2019-03-21T18:08:42.776Z,35.33
2019-03-21T18:11:12.101Z,40.65
2019-03-21T18:13:41.331Z,44.30
2019-03-21T18:16:10.856Z,39.47
2019-03-21T18:18:40.092Z,40.27
2019-03-21T18:21:09.325Z,42.87
2019-03-21T18:23:38.701Z,34.23
2019-03-21T18:26:08.192Z,37.10
2019-03-21T18:28:37.826Z,35.48
2019-03-21T18:31:07.264Z,38.65
2019-03-21T18:33:36.614Z,39.43
2019-03-21T18:36:06.175Z,35.73
2019-03-21T18:38:35.638Z,38.10
2019-03-21T18:41:05.238Z,39.63
2019-03-21T18:43:34.466Z,34.85
2019-03-21T18:46:03.791Z,33.77
2019-03-21T18:48:34.349Z,36.77
2019-03-21T18:51:03.602Z,39.00
2019-03-21T18:53:33.253Z,36.57
2019-03-21T18:56:02.481Z,42.53
2019-03-21T18:58:31.725Z,36.38
2019-03-21T19:01:01.118Z,35.93
2019-03-21T19:03:30.575Z,40.13
2019-03-21T19:06:01.039Z,39.20
2019-03-21T19:08:30.352Z,36.70
2019-03-21T19:10:59.574Z,51.70
2019-03-21T19:13:28.817Z,38.77
2019-03-21T19:15:58.143Z,39.87
2019-03-21T19:18:27.401Z,44.00
2019-03-21T19:20:56.630Z,36.17
2019-03-21T19:23:26.182Z,42.07
2019-03-21T19:25:55.531Z,40.77
2019-03-21T19:28:24.824Z,44.07
2019-03-21T19:30:54.094Z,43.03
2019-03-21T19:33:23.335Z,45.13
2019-03-21T19:35:52.710Z,48.13
2019-03-21T19:38:23.854Z,43.60
2019-03-21T19:40:53.524Z,43.23
2019-03-21T19:43:22.810Z,42.60
2019-03-21T19:45:52.772Z,42.73
2019-03-21T19:48:22.367Z,47.43
2019-03-21T19:50:51.722Z,45.53
2019-03-21T19:53:21.114Z,50.73
2019-03-21T19:55:50.598Z,54.27
2019-03-21T19:58:20.064Z,48.60
2019-03-21T20:00:49.307Z,43.27
2019-03-21T20:03:18.730Z,40.13
2019-03-21T20:05:59.710Z,43.13
2019-03-21T20:08:19.510Z,39.73
2019-03-21T20:10:48.791Z,41.07
2019-03-21T20:13:18.208Z,46.83
2019-03-21T20:15:48.713Z,44.10
2019-03-21T20:18:18.255Z,46.68
2019-03-21T20:20:47.779Z,45.17
2019-03-21T20:23:17.419Z,48.77
2019-03-21T20:25:46.736Z,44.53
2019-03-21T20:28:15.945Z,47.77
2019-03-21T20:30:45.290Z,51.83
2019-03-21T20:33:14.558Z,43.17
2019-03-21T20:35:44.166Z,39.80
2019-03-21T20:38:13.807Z,44.50
2019-03-21T20:40:43.070Z,47.17
2019-03-21T20:43:12.279Z,45.73
2019-03-21T20:45:41.859Z,41.13
2019-03-21T20:48:11.405Z,45.43
2019-03-21T20:50:42.758Z,44.50
2019-03-21T20:53:12.274Z,49.30
2019-03-21T20:55:41.725Z,44.67
2019-03-21T20:58:11.335Z,40.83
2019-03-21T21:00:41.414Z,36.63
2019-03-21T21:03:10.907Z,39.47
2019-03-21T21:05:40.714Z,45.00
2019-03-21T21:08:17.952Z,45.03
2019-03-21T21:10:48.253Z,49.17
2019-03-21T21:13:17.712Z,43.40
2019-03-21T21:15:47.482Z,44.13
2019-03-21T21:18:16.689Z,55.53
2019-03-21T21:20:45.930Z,46.20
2019-03-21T21:23:15.232Z,39.77
2019-03-21T21:25:44.494Z,60.80
2019-03-21T21:28:13.714Z,44.00
2019-03-21T21:30:42.950Z,46.70
2019-03-21T21:33:12.150Z,45.47
2019-03-21T21:35:42.542Z,50.77
2019-03-21T21:38:15.670Z,40.40
2019-03-21T21:40:44.910Z,50.00
2019-03-21T21:43:15.845Z,50.97
2019-03-21T21:45:45.128Z,40.37
2019-03-21T21:48:14.329Z,43.17
2019-03-21T21:50:43.570Z,39.30
2019-03-21T21:53:13.010Z,44.90
2019-03-21T21:55:42.720Z,41.57
2019-03-21T21:58:11.996Z,41.57
2019-03-21T22:00:41.318Z,44.00
2019-03-21T22:03:10.552Z,44.27
2019-03-21T22:05:39.852Z,44.40
2019-03-21T22:08:09.158Z,44.50
2019-03-21T22:10:38.382Z,49.77
2019-03-21T22:13:07.855Z,43.30
2019-03-21T22:15:37.412Z,43.03
2019-03-21T22:18:06.654Z,44.47
2019-03-21T22:20:35.876Z,47.13
2019-03-21T22:23:05.239Z,45.60
2019-03-21T22:25:34.526Z,42.23
2019-03-21T22:28:03.906Z,39.17
2019-03-21T22:30:33.266Z,43.83
2019-03-21T22:33:02.771Z,43.03
2019-03-21T22:35:32.029Z,41.13
2019-03-21T22:38:01.363Z,50.63
2019-03-21T22:40:30.592Z,45.17
2019-03-21T22:42:59.825Z,44.73
2019-03-21T22:45:29.145Z,43.17
2019-03-21T22:48:01.390Z,41.10
2019-03-21T22:50:30.406Z,40.63
2019-03-21T22:52:59.651Z,45.83
2019-03-21T22:55:28.874Z,36.23
2019-03-21T22:57:58.515Z,45.03
2019-03-21T23:00:34.675Z,49.67
2019-03-21T23:03:04.591Z,53.53
2019-03-21T23:05:34.453Z,49.83
2019-03-21T23:08:03.944Z,54.03
2019-03-21T23:10:33.842Z,36.50
2019-03-21T23:13:03.366Z,59.60
2019-03-21T23:15:33.675Z,46.87
2019-03-21T23:18:03.231Z,37.63
2019-03-21T23:20:32.459Z,52.00
2019-03-21T23:23:02.059Z,45.10
2019-03-21T23:25:31.377Z,48.30
2019-03-21T23:28:00.871Z,49.20
2019-03-21T23:30:33.269Z,40.93
2019-03-21T23:33:01.556Z,42.83
2019-03-21T23:35:30.796Z,42.60
2019-03-21T23:38:00.109Z,47.30
2019-03-21T23:40:29.342Z,45.73
2019-03-21T23:42:58.898Z,48.43
2019-03-21T23:45:28.237Z,49.97
2019-03-21T23:47:57.746Z,48.63
2019-03-21T23:50:27.038Z,58.43
2019-03-21T23:52:56.676Z,49.83
2019-03-21T23:55:25.951Z,48.80
2019-03-21T23:57:55.391Z,49.63
